createdAt,value
2022-10-17T00:01:15.151Z,38.90
2022-10-17T00:03:44.667Z,38.85
2022-10-17T00:06:14.850Z,39.22
2022-10-17T00:08:43.080Z,41.33
2022-10-17T00:11:16.769Z,42.42
2022-10-17T00:13:44.418Z,44.35
2022-10-17T00:16:11.907Z,52.95
2022-10-17T00:18:39.151Z,50.47
2022-10-17T00:21:06.608Z,41.83
2022-10-17T00:23:35.807Z,44.85
2022-10-17T00:26:05.636Z,39.65
2022-10-17T00:28:35.115Z,39.58
2022-10-17T00:31:06.339Z,42.80
2022-10-17T00:33:35.558Z,39.08
2022-10-17T00:36:07.325Z,45.28
2022-10-17T00:38:37.710Z,38.45
2022-10-17T00:41:05.849Z,40.95
2022-10-17T00:44:02.852Z,36.63
2022-10-17T00:46:36.192Z,39.75
2022-10-17T00:49:08.426Z,42.47
2022-10-17T00:51:46.471Z,41.78
2022-10-17T00:54:19.187Z,37.13
2022-10-17T00:56:48.290Z,39.05
2022-10-17T00:59:17.687Z,39.67
2022-10-17T01:01:52.552Z,37.85
2022-10-17T01:04:20.171Z,37.10
2022-10-17T01:06:47.427Z,38.47
2022-10-17T01:09:14.489Z,38.00
2022-10-17T01:12:04.355Z,36.15
2022-10-17T01:14:55.396Z,35.13
2022-10-17T01:17:55.045Z,36.70
2022-10-17T01:20:55.519Z,37.08
2022-10-17T01:23:49.375Z,39.22
2022-10-17T01:26:40.088Z,39.60
2022-10-17T01:29:26.437Z,39.95
2022-10-17T01:31:58.565Z,39.35
2022-10-17T01:34:35.255Z,36.63
2022-10-17T01:37:21.377Z,38.03
2022-10-17T01:39:55.862Z,39.38
2022-10-17T01:43:17.007Z,36.53
2022-10-17T01:45:54.942Z,32.30
2022-10-17T01:48:25.429Z,37.40
2022-10-17T01:51:01.969Z,36.55
2022-10-17T01:53:33.927Z,39.50
2022-10-17T01:56:05.264Z,38.63
2022-10-17T01:58:37.746Z,36.33
2022-10-17T02:01:08.513Z,38.50
2022-10-17T02:03:36.137Z,34.40
2022-10-17T02:06:03.617Z,37.03
2022-10-17T02:08:46.173Z,35.33
2022-10-17T02:11:24.738Z,36.72
2022-10-17T02:14:18.507Z,35.53
2022-10-17T02:19:46.215Z,38.20
2022-10-17T02:22:39.662Z,40.05
2022-10-17T02:25:18.171Z,37.72
2022-10-17T02:28:17.679Z,34.50
2022-10-17T02:30:56.254Z,35.38
2022-10-17T02:33:56.505Z,34.63
2022-10-17T02:36:28.320Z,34.45
2022-10-17T02:38:56.464Z,35.85
2022-10-17T02:41:27.054Z,34.47
2022-10-17T02:43:57.628Z,35.42
2022-10-17T02:46:28.926Z,36.05
2022-10-17T02:49:16.209Z,35.72
2022-10-17T02:51:59.312Z,35.63
2022-10-17T02:54:56.958Z,36.95
2022-10-17T02:57:51.180Z,38.08
2022-10-17T03:03:30.818Z,38.15
2022-10-17T03:06:00.493Z,39.05
2022-10-17T03:08:27.913Z,37.65
2022-10-17T03:10:55.328Z,42.85
2022-10-17T03:13:24.875Z,35.97
2022-10-17T03:15:52.222Z,37.25
2022-10-17T03:18:19.330Z,41.30
2022-10-17T03:20:46.752Z,35.20
2022-10-17T03:23:16.431Z,39.13
2022-10-17T03:25:43.864Z,37.45
2022-10-17T03:28:11.854Z,34.90
2022-10-17T03:30:39.370Z,33.92
2022-10-17T03:33:06.668Z,36.53
2022-10-17T03:35:38.920Z,35.97
2022-10-17T03:38:06.138Z,37.63
2022-10-17T03:40:33.446Z,38.15
2022-10-17T03:43:00.560Z,36.72
2022-10-17T03:45:27.894Z,33.63
2022-10-17T03:47:58.339Z,35.25
2022-10-17T03:50:25.978Z,33.47
2022-10-17T03:52:53.127Z,34.95
2022-10-17T03:55:20.474Z,39.22
2022-10-17T03:57:47.656Z,34.25
2022-10-17T04:00:15.318Z,37.85
2022-10-17T04:02:42.724Z,37.15
2022-10-17T04:05:10.131Z,36.35
2022-10-17T04:07:37.318Z,34.90
2022-10-17T04:10:05.699Z,36.75
2022-10-17T04:12:32.944Z,34.10
2022-10-17T04:15:02.486Z,35.28
2022-10-17T04:17:35.752Z,33.55
2022-10-17T04:20:06.280Z,35.20
2022-10-17T04:22:35.838Z,35.92
2022-10-17T04:25:03.146Z,36.72
2022-10-17T04:27:30.350Z,39.63
2022-10-17T04:29:57.704Z,43.17
2022-10-17T04:32:24.798Z,34.88
2022-10-17T04:34:52.245Z,35.47
2022-10-17T04:37:19.850Z,34.85
2022-10-17T04:39:47.156Z,37.35
2022-10-17T04:42:16.585Z,35.60
2022-10-17T04:44:43.866Z,35.70
2022-10-17T04:47:11.141Z,35.45
2022-10-17T04:49:38.911Z,38.25
2022-10-17T04:52:06.026Z,33.72
2022-10-17T04:54:33.212Z,35.92
2022-10-17T04:57:05.054Z,38.25
2022-10-17T04:59:32.650Z,36.60
2022-10-17T05:02:02.156Z,34.60
2022-10-17T05:04:31.606Z,41.40
2022-10-17T05:07:01.118Z,34.78
2022-10-17T05:09:28.788Z,35.33
2022-10-17T05:11:55.987Z,32.90
2022-10-17T05:14:23.364Z,31.98
2022-10-17T05:16:50.457Z,31.40
2022-10-17T05:19:18.064Z,33.90
2022-10-17T05:21:47.552Z,31.90
2022-10-17T05:24:15.405Z,33.22
2022-10-17T05:26:42.636Z,35.08
2022-10-17T05:29:10.280Z,33.33
2022-10-17T05:31:37.687Z,38.17
2022-10-17T05:34:07.066Z,34.88
2022-10-17T05:36:41.096Z,37.33
2022-10-17T05:39:12.618Z,33.15
2022-10-17T05:41:39.673Z,32.42
2022-10-17T05:44:09.322Z,30.25
2022-10-17T05:46:36.558Z,33.28
2022-10-17T05:49:14.659Z,29.25
2022-10-17T05:51:53.394Z,31.67
2022-10-17T05:54:20.600Z,27.52
2022-10-17T05:56:55.298Z,28.67
2022-10-17T05:59:24.392Z,26.52
2022-10-17T06:01:54.702Z,27.05
2022-10-17T06:04:24.760Z,25.15
2022-10-17T06:06:52.120Z,25.50
2022-10-17T06:09:22.331Z,26.77
2022-10-17T06:11:51.811Z,26.23
2022-10-17T06:14:21.398Z,22.52
2022-10-17T06:16:50.894Z,21.58
2022-10-17T06:19:18.550Z,22.85
2022-10-17T06:21:45.872Z,20.10
2022-10-17T06:24:13.350Z,20.73
2022-10-17T06:26:40.487Z,23.08
2022-10-17T06:29:08.517Z,20.63
2022-10-17T06:31:38.490Z,22.55
2022-10-17T06:34:05.940Z,21.02
2022-10-17T06:36:33.168Z,20.35
2022-10-17T06:39:00.519Z,22.20
2022-10-17T06:41:27.773Z,25.40
2022-10-17T06:43:55.262Z,20.67
2022-10-17T06:46:22.255Z,22.60
2022-10-17T06:48:52.163Z,22.83
2022-10-17T06:51:19.389Z,19.55
2022-10-17T06:53:46.865Z,18.77
2022-10-17T06:56:14.125Z,19.88
2022-10-17T06:58:41.555Z,16.75
2022-10-17T07:01:11.722Z,17.75
2022-10-17T07:03:40.346Z,17.30
2022-10-17T07:06:08.111Z,17.25
2022-10-17T07:08:35.501Z,17.38
2022-10-17T07:11:13.671Z,18.40
2022-10-17T07:13:41.143Z,17.70
2022-10-17T07:16:11.787Z,17.88
2022-10-17T07:18:42.271Z,16.97
2022-10-17T07:21:11.619Z,16.85
2022-10-17T07:23:38.810Z,15.82
2022-10-17T07:26:13.226Z,17.92
2022-10-17T07:28:43.108Z,17.23
2022-10-17T07:31:16.595Z,15.80
2022-10-17T07:36:21.329Z,17.23
2022-10-17T07:38:51.000Z,16.10
2022-10-17T07:41:20.922Z,16.45
2022-10-17T07:43:50.194Z,16.33
2022-10-17T07:46:19.623Z,16.35
2022-10-17T07:48:46.913Z,15.10
2022-10-17T07:51:14.173Z,15.85
2022-10-17T07:53:46.434Z,17.27
2022-10-17T07:56:16.333Z,15.30
2022-10-17T07:58:46.361Z,16.83
2022-10-17T08:01:15.322Z,15.75
2022-10-17T08:03:49.159Z,17.52
2022-10-17T08:06:16.634Z,20.33
2022-10-17T08:08:46.452Z,15.65
2022-10-17T08:11:15.121Z,14.60
2022-10-17T08:13:45.207Z,16.90
2022-10-17T08:16:13.635Z,17.50
2022-10-17T08:18:42.784Z,17.02
2022-10-17T08:21:13.266Z,19.00
2022-10-17T08:23:43.921Z,17.10
2022-10-17T08:26:12.202Z,17.77
2022-10-17T08:28:40.513Z,18.27
2022-10-17T08:31:10.420Z,18.75
2022-10-17T08:33:38.219Z,19.65
2022-10-17T08:36:06.774Z,18.30
2022-10-17T08:38:36.357Z,18.40
2022-10-17T08:41:11.989Z,18.15
2022-10-17T08:44:14.173Z,18.50
2022-10-17T08:46:44.891Z,18.38
2022-10-17T08:49:46.991Z,18.25
2022-10-17T08:52:28.533Z,19.42
2022-10-17T08:54:56.089Z,16.35
2022-10-17T08:57:26.104Z,17.10
2022-10-17T08:59:56.013Z,17.40
2022-10-17T09:02:37.849Z,19.15
2022-10-17T09:05:33.301Z,16.75
2022-10-17T09:08:16.700Z,18.08
2022-10-17T09:10:49.906Z,18.33
2022-10-17T09:13:45.279Z,18.98
2022-10-17T09:16:35.093Z,17.58
2022-10-17T09:19:31.725Z,15.30
2022-10-17T09:22:04.376Z,14.95
2022-10-17T09:24:50.465Z,15.68
2022-10-17T09:27:43.132Z,16.23
2022-10-17T09:30:44.056Z,15.38
2022-10-17T09:36:00.289Z,17.25
2022-10-17T09:38:38.166Z,15.15
2022-10-17T09:41:39.157Z,16.80
2022-10-17T09:44:18.108Z,15.00
2022-10-17T09:47:04.225Z,16.98
2022-10-17T09:49:50.451Z,15.13
2022-10-17T09:52:37.856Z,17.08
2022-10-17T09:55:16.757Z,16.83
2022-10-17T09:57:52.538Z,18.65
2022-10-17T10:00:33.923Z,15.90
2022-10-17T10:03:24.801Z,15.70
2022-10-17T10:06:05.656Z,14.90
2022-10-17T10:08:55.452Z,14.73
2022-10-17T10:11:44.090Z,15.57
2022-10-17T10:14:22.684Z,16.00
2022-10-17T10:16:52.380Z,17.48
2022-10-17T10:19:30.266Z,16.33
2022-10-17T10:22:03.944Z,15.35
2022-10-17T10:24:33.361Z,15.57
2022-10-17T10:27:05.037Z,16.70
2022-10-17T10:29:52.340Z,16.17
2022-10-17T10:32:22.468Z,18.95
2022-10-17T10:34:58.720Z,17.65
2022-10-17T10:37:33.962Z,18.05
2022-10-17T10:40:06.718Z,15.98
2022-10-17T10:42:40.388Z,15.32
2022-10-17T10:45:29.220Z,15.30
2022-10-17T10:48:17.786Z,15.40
2022-10-17T10:51:07.997Z,16.42
2022-10-17T10:53:44.520Z,14.57
2022-10-17T10:56:29.841Z,17.42
2022-10-17T10:59:18.823Z,13.35
2022-10-17T11:01:49.170Z,16.67
2022-10-17T11:04:25.500Z,17.85
2022-10-17T11:07:06.180Z,14.10
2022-10-17T11:09:52.120Z,13.23
2022-10-17T11:12:19.068Z,13.73
2022-10-17T11:15:14.114Z,14.88
2022-10-17T11:18:02.186Z,17.95
2022-10-17T11:21:03.312Z,14.98
2022-10-17T11:23:38.459Z,15.65
2022-10-17T11:26:16.631Z,14.63
2022-10-17T11:28:46.613Z,14.55
2022-10-17T11:31:15.812Z,17.92
2022-10-17T11:33:42.751Z,17.48
2022-10-17T11:36:11.206Z,17.08
2022-10-17T11:38:52.601Z,16.67
2022-10-17T11:41:37.994Z,15.25
2022-10-17T11:44:34.069Z,15.13
2022-10-17T11:47:39.458Z,16.23
2022-10-17T11:53:26.020Z,18.65
2022-10-17T11:55:54.568Z,18.05
2022-10-17T11:58:39.090Z,20.65
2022-10-17T12:01:21.365Z,18.65
2022-10-17T12:04:31.876Z,15.93
2022-10-17T12:07:32.359Z,16.95
2022-10-17T12:10:18.590Z,18.77
2022-10-17T12:12:45.878Z,16.33
2022-10-17T12:15:13.063Z,19.20
2022-10-17T12:18:05.720Z,21.55
2022-10-17T12:20:35.368Z,20.40
2022-10-17T12:23:11.901Z,18.52
2022-10-17T12:25:55.967Z,17.08
2022-10-17T12:28:33.779Z,17.60
2022-10-17T12:31:07.300Z,16.88
2022-10-17T12:33:35.925Z,18.75
2022-10-17T12:36:19.257Z,17.60
2022-10-17T12:38:51.882Z,16.98
2022-10-17T12:44:14.458Z,15.00
2022-10-17T12:46:48.349Z,14.77
2022-10-17T12:50:04.554Z,18.23
2022-10-17T12:52:31.894Z,15.10
2022-10-17T12:55:14.574Z,14.00
2022-10-17T12:58:03.857Z,15.93
2022-10-17T13:03:45.469Z,15.95
2022-10-17T13:06:21.763Z,16.02
2022-10-17T13:09:03.320Z,14.30
2022-10-17T13:11:35.102Z,13.90
2022-10-17T13:14:12.286Z,16.58
2022-10-17T13:16:50.508Z,16.15
2022-10-17T13:19:23.014Z,17.63
2022-10-17T13:21:55.134Z,16.30
2022-10-17T13:24:30.169Z,17.55
2022-10-17T13:26:57.545Z,15.32
2022-10-17T13:29:25.793Z,15.23
2022-10-17T13:31:59.411Z,16.75
2022-10-17T13:34:27.690Z,15.70
2022-10-17T13:37:01.605Z,14.98
2022-10-17T13:39:52.316Z,15.07
2022-10-17T13:42:37.011Z,21.75
2022-10-17T13:45:12.627Z,16.10
2022-10-17T13:47:40.235Z,18.60
2022-10-17T13:50:26.428Z,15.18
2022-10-17T13:53:18.102Z,16.98
2022-10-17T13:56:09.443Z,15.93
2022-10-17T13:58:43.695Z,16.85
2022-10-17T14:01:13.377Z,15.90
2022-10-17T14:03:48.973Z,18.70
2022-10-17T14:06:23.888Z,19.30
2022-10-17T14:09:05.097Z,17.83
2022-10-17T14:11:42.505Z,18.75
2022-10-17T14:14:19.413Z,18.13
2022-10-17T14:16:48.137Z,18.33
2022-10-17T14:19:37.790Z,18.50
2022-10-17T14:22:22.074Z,16.67
2022-10-17T14:24:50.451Z,19.45
2022-10-17T14:27:33.449Z,17.67
2022-10-17T14:30:03.214Z,16.73
2022-10-17T14:32:36.315Z,19.80
2022-10-17T14:35:37.015Z,16.27
2022-10-17T14:38:03.197Z,20.95
2022-10-17T14:40:32.435Z,18.08
2022-10-17T14:43:04.943Z,16.92
2022-10-17T14:45:38.103Z,17.47
2022-10-17T14:48:21.559Z,15.98
2022-10-17T14:51:08.261Z,16.80
2022-10-17T14:53:36.473Z,17.65
2022-10-17T14:56:22.483Z,18.77
2022-10-17T14:58:49.870Z,16.83
2022-10-17T15:01:16.869Z,20.42
2022-10-17T15:03:44.583Z,16.73
2022-10-17T15:06:23.410Z,17.63
2022-10-17T15:08:50.970Z,19.48
2022-10-17T15:11:18.378Z,18.92
2022-10-17T15:13:48.075Z,20.73
2022-10-17T15:16:19.813Z,18.92
2022-10-17T15:18:48.146Z,21.57
2022-10-17T15:21:26.278Z,18.85
2022-10-17T15:24:06.789Z,20.00
2022-10-17T15:26:34.845Z,20.88
2022-10-17T15:29:02.444Z,24.75
2022-10-17T15:31:32.299Z,18.88
2022-10-17T15:33:59.791Z,20.23
2022-10-17T15:36:30.915Z,18.98
2022-10-17T15:39:00.796Z,19.23
2022-10-17T15:41:29.908Z,18.40
2022-10-17T15:43:59.123Z,20.92
2022-10-17T15:46:32.719Z,33.90
2022-10-17T15:49:05.436Z,25.45
2022-10-17T15:51:32.864Z,24.05
2022-10-17T15:54:00.264Z,20.40
2022-10-17T15:56:30.900Z,20.08
2022-10-17T15:58:58.494Z,20.10
2022-10-17T16:01:29.696Z,22.20
2022-10-17T16:03:57.341Z,20.27
2022-10-17T16:06:25.188Z,21.77
2022-10-17T16:08:53.293Z,17.50
2022-10-17T16:11:29.004Z,19.88
2022-10-17T16:14:00.332Z,22.25
2022-10-17T16:16:28.365Z,21.15
2022-10-17T16:18:55.821Z,22.48
2022-10-17T16:21:27.135Z,19.25
2022-10-17T16:23:57.696Z,19.83
2022-10-17T16:26:25.355Z,19.83
2022-10-17T16:28:52.885Z,19.23
2022-10-17T16:31:25.777Z,18.83
2022-10-17T16:36:24.248Z,18.85
2022-10-17T16:38:52.017Z,18.80
2022-10-17T16:41:26.797Z,19.45
2022-10-17T16:43:55.881Z,19.27
2022-10-17T16:46:24.188Z,18.38
2022-10-17T16:48:52.170Z,19.02
2022-10-17T16:51:20.250Z,17.02
2022-10-17T16:53:52.718Z,21.42
2022-10-17T16:56:22.330Z,18.90
2022-10-17T16:58:50.686Z,18.92
2022-10-17T17:01:23.741Z,20.42
2022-10-17T17:03:52.740Z,18.02
2022-10-17T17:06:26.258Z,21.27
2022-10-17T17:08:57.096Z,20.88
2022-10-17T17:11:26.192Z,19.30
2022-10-17T17:13:56.876Z,19.70
2022-10-17T17:16:26.514Z,18.77
2022-10-17T17:18:55.868Z,19.25
2022-10-17T17:21:23.792Z,18.17
2022-10-17T17:23:51.352Z,18.83
2022-10-17T17:26:22.266Z,20.15
2022-10-17T17:28:50.208Z,20.48
2022-10-17T17:31:22.732Z,26.40
2022-10-17T17:33:52.010Z,19.58
2022-10-17T17:36:24.952Z,18.00
2022-10-17T17:38:55.938Z,19.20
2022-10-17T17:41:23.599Z,18.60
2022-10-17T17:43:51.893Z,18.90
2022-10-17T17:46:21.302Z,21.25
2022-10-17T17:48:49.878Z,19.08
2022-10-17T17:51:20.682Z,18.67
2022-10-17T17:53:48.939Z,18.05
2022-10-17T17:56:19.645Z,19.17
2022-10-17T17:58:48.558Z,17.20
2022-10-17T18:01:20.420Z,19.67
2022-10-17T18:03:49.864Z,18.60
2022-10-17T18:06:18.900Z,17.30
2022-10-17T18:08:49.543Z,21.63
2022-10-17T18:11:21.977Z,21.83
2022-10-17T18:14:01.011Z,19.50
2022-10-17T18:16:29.869Z,15.95
2022-10-17T18:19:01.479Z,18.10
2022-10-17T18:21:31.920Z,20.02
2022-10-17T18:23:59.330Z,18.40
2022-10-17T18:26:26.839Z,22.25
2022-10-17T18:28:54.669Z,21.67
2022-10-17T18:31:23.576Z,21.70
2022-10-17T18:33:55.283Z,17.70
2022-10-17T18:36:23.462Z,18.58
2022-10-17T18:38:50.844Z,16.40
2022-10-17T18:41:20.518Z,18.23
2022-10-17T18:43:49.456Z,19.55
2022-10-17T18:46:28.309Z,17.92
2022-10-17T18:48:58.276Z,16.35
2022-10-17T18:51:26.068Z,18.40
2022-10-17T18:53:59.713Z,18.55
2022-10-17T18:56:27.202Z,15.45
2022-10-17T18:58:55.178Z,16.52
2022-10-17T19:01:25.776Z,16.45
2022-10-17T19:03:56.024Z,17.10
2022-10-17T19:06:27.601Z,15.65
2022-10-17T19:08:55.189Z,15.40
2022-10-17T19:11:25.613Z,17.52
2022-10-17T19:13:53.608Z,18.90
2022-10-17T19:16:23.249Z,21.05
2022-10-17T19:18:54.541Z,16.70
2022-10-17T19:21:22.537Z,20.45
2022-10-17T19:23:58.404Z,17.20
2022-10-17T19:26:28.487Z,14.95
2022-10-17T19:28:56.279Z,15.70
2022-10-17T19:31:27.563Z,15.88
2022-10-17T19:33:56.501Z,15.98
2022-10-17T19:36:30.421Z,14.77
2022-10-17T19:39:05.073Z,14.63
2022-10-17T19:41:32.773Z,15.98
2022-10-17T19:44:00.519Z,14.40
2022-10-17T19:46:29.601Z,16.17
2022-10-17T19:48:57.432Z,14.52
2022-10-17T19:51:26.196Z,18.00
2022-10-17T19:53:56.038Z,13.70
2022-10-17T19:56:25.082Z,16.27
2022-10-17T19:58:58.134Z,16.13
2022-10-17T20:03:57.110Z,19.17
2022-10-17T20:06:24.536Z,17.90
2022-10-17T20:08:52.357Z,13.50
2022-10-17T20:11:22.668Z,14.25
2022-10-17T20:13:50.818Z,13.32
2022-10-17T20:16:25.888Z,15.70
2022-10-17T20:18:55.677Z,13.68
2022-10-17T20:21:25.731Z,12.90
2022-10-17T20:23:53.937Z,18.08
2022-10-17T20:26:37.527Z,12.00
2022-10-17T20:29:14.304Z,14.07
2022-10-17T20:31:44.202Z,14.40
2022-10-17T20:34:14.244Z,16.48
2022-10-17T20:36:41.798Z,12.45
2022-10-17T20:39:10.947Z,15.05
2022-10-17T20:41:38.245Z,12.23
2022-10-17T20:44:10.980Z,18.92
2022-10-17T20:46:44.681Z,15.80
2022-10-17T20:49:18.536Z,13.15
2022-10-17T20:51:46.825Z,13.50
2022-10-17T20:54:14.340Z,13.70
2022-10-17T20:56:41.732Z,13.43
2022-10-17T20:59:14.411Z,13.50
2022-10-17T21:01:42.239Z,15.83
2022-10-17T21:04:44.918Z,15.23
2022-10-17T21:07:02.005Z,14.25
2022-10-17T21:09:29.718Z,15.80
2022-10-17T21:11:57.025Z,16.77
2022-10-17T21:14:25.457Z,14.32
2022-10-17T21:16:54.854Z,16.92
2022-10-17T21:19:22.311Z,16.30
2022-10-17T21:21:49.988Z,12.38
2022-10-17T21:24:19.944Z,11.90
2022-10-17T21:26:48.835Z,15.40
2022-10-17T21:29:18.427Z,12.43
2022-10-17T21:31:45.640Z,14.00
2022-10-17T21:34:18.293Z,15.38
2022-10-17T21:36:48.570Z,15.33
2022-10-17T21:39:16.900Z,15.23
2022-10-17T21:41:44.854Z,17.23
2022-10-17T21:44:14.989Z,13.02
2022-10-17T21:46:42.982Z,14.50
2022-10-17T21:49:12.640Z,15.95
2022-10-17T21:51:40.385Z,16.05
2022-10-17T21:54:08.112Z,17.60
2022-10-17T21:56:35.666Z,19.13
2022-10-17T21:59:04.054Z,20.83
2022-10-17T22:01:34.914Z,21.67
2022-10-17T22:04:04.562Z,17.30
2022-10-17T22:06:39.739Z,18.98
2022-10-17T22:09:13.402Z,19.88
2022-10-17T22:11:40.934Z,16.30
2022-10-17T22:14:18.490Z,15.75
2022-10-17T22:16:47.183Z,16.35
2022-10-17T22:19:17.606Z,13.82
2022-10-17T22:21:45.398Z,14.25
2022-10-17T22:24:14.909Z,12.88
2022-10-17T22:26:43.453Z,13.77
2022-10-17T22:29:11.359Z,20.85
2022-10-17T22:31:39.583Z,13.27
2022-10-17T22:34:07.992Z,16.05
2022-10-17T22:36:35.852Z,14.32
2022-10-17T22:39:03.994Z,13.20
2022-10-17T22:41:31.437Z,17.10
2022-10-17T22:43:58.982Z,15.30
2022-10-17T22:46:26.364Z,12.40
2022-10-17T22:48:53.871Z,17.10
2022-10-17T22:51:21.189Z,12.70
2022-10-17T22:53:48.721Z,14.88
2022-10-17T22:56:18.775Z,13.15
2022-10-17T22:58:46.527Z,14.15
2022-10-17T23:01:17.278Z,13.32
2022-10-17T23:03:45.062Z,15.68
2022-10-17T23:06:14.505Z,15.05
2022-10-17T23:08:43.497Z,13.90
2022-10-17T23:11:13.255Z,15.55
2022-10-17T23:13:40.826Z,15.85
2022-10-17T23:16:08.840Z,16.70
2022-10-17T23:18:37.833Z,13.77
2022-10-17T23:21:05.456Z,14.82
2022-10-17T23:23:33.324Z,17.63
2022-10-17T23:26:09.384Z,14.73
2022-10-17T23:28:37.302Z,13.77
2022-10-17T23:31:19.129Z,14.20
2022-10-17T23:33:47.876Z,14.55
2022-10-17T23:36:19.014Z,14.02
2022-10-17T23:38:47.922Z,14.57
2022-10-17T23:41:15.200Z,15.63
2022-10-17T23:43:43.017Z,15.63
2022-10-17T23:46:10.551Z,16.15
2022-10-17T23:48:38.715Z,16.27
2022-10-17T23:51:07.390Z,15.55
2022-10-17T23:53:35.990Z,14.15
2022-10-17T23:56:06.723Z,14.32
2022-10-17T23:58:34.667Z,15.50
